Dirección General De Aeronáutica Civil

Dirección Meteorológica de Chile - Servicios Climáticos

Informe General de Control de Calidad de la Estación

Listado de niveles de control de calidad para algunos parámetros
Estación Melinka Ad. (430009)
Fecha de Revisión de los datos :

Elementos

Registros Niveles de Control Total
Nivel 0 Nivel 1 Nivel 2 Nivel 3 Errores Porcentaje
01 Temperatura del Aire Seco 50.629 0 . 78 0.15 % 0 . 0 . 78 0.15 %
02 Temperatura de Rocío 50.505 0 . 0 . 0 . 0 . 0 0.00 %
03 Humedad Relativa del Aire 35.057 0 . 0 . 0 . 0 . 0 0.00 %
04 Temperatura Máxima PM 1.454 0 . 0 . 9 0.62 % 0 . 9 0.62 %
05 Temperatura Mínima AM 1.467 0 . 0 . 7 0.48 % 0 . 7 0.48 %
06 Viento a 10 m. de Altura 51.206 0 . 0 . 0 . 0 . 0 0.00 %
07 Agua Caida, Acumulada 6 Horas 5.832 0 . 0 . 0 . 0 . 0 0.00 %
08 Presión Atm. a Nivel de Estación (QFE) 51.108 0 . 5 0.01 % 0 . 0 . 5 0.01 %
09 Presión Atm. a Nivel Medio del Mar (QFF) 26.802 0 . 0 . 0 . 0 . 0 0.00 %
10 Presión Atm. Estándar OACI (QNH) 51.205 0 . 0 . 0 . 0 . 0 0.00 %

Totales

325.265 . 0.0000 % . 0.0255 % . 0.0049 % . 0.0000 % 99 0.0304 %

Detalle de Errores Recientes

Fecha del Dato Descripción Información Error Fecha Ingreso
2024-06-14 00:00:00 Temperatura 10.0 del 13-06-2024 16:00, Mayor que la Máxima 9.7 14-06-2024 00:00 10.0 -- 9.7 2024-06-14 00:12:00
2024-07-07 00:00:00 Temperatura 9.2 del 06-07-2024 17:00, Mayor que la Máxima 8.8 07-07-2024 00:00 9.2 -- 8.8 2024-07-07 00:11:00
2024-07-01 17:00:00 qfe debe ser menor o igual a qff 1015.4 - 1014.2 2024-07-01 16:53:00
2024-05-20 17:00:00 HR (Humedad Relativa) es igual a 100% y Ts <> Td 8.6 - 8.3 2024-05-20 17:09:00
2024-05-27 21:00:00 HR (Humedad Relativa) es igual a 100% y Ts <> Td 10.1 - 9.8 2024-05-27 21:09:00
2024-05-28 13:00:00 HR (Humedad Relativa) es igual a 100% y Ts <> Td 10.2 - 9.9 2024-05-28 13:09:00
2024-05-28 14:00:00 HR (Humedad Relativa) es igual a 100% y Ts <> Td 10.2 - 9.9 2024-05-28 14:09:00
2024-05-30 22:00:00 HR (Humedad Relativa) es igual a 100% y Ts <> Td 8.9 - 8.6 2024-05-30 22:09:00
2024-06-04 21:00:00 HR (Humedad Relativa) es igual a 100% y Ts <> Td 10.4 - 10.0 2024-06-04 21:10:00
2024-06-04 22:00:00 HR (Humedad Relativa) es igual a 100% y Ts <> Td 10.7 - 10.4 2024-06-04 22:11:00
2024-06-25 13:00:00 HR (Humedad Relativa) es igual a 100% y Ts <> Td 7.5 - 5.6 2024-06-25 13:10:00
2024-06-25 18:00:00 HR (Humedad Relativa) es igual a 100% y Ts <> Td 7.7 - 6.3 2024-06-25 18:11:00
2024-06-25 19:00:00 HR (Humedad Relativa) es igual a 100% y Ts <> Td 8.3 - 7.0 2024-06-25 19:11:00
2024-06-25 20:00:00 HR (Humedad Relativa) es igual a 100% y Ts <> Td 8.7 - 7.3 2024-06-25 20:11:00
2024-06-25 21:00:00 HR (Humedad Relativa) es igual a 100% y Ts <> Td 8.9 - 7.5 2024-06-25 21:10:00
2024-06-25 22:00:00 HR (Humedad Relativa) es igual a 100% y Ts <> Td 9.2 - 8.1 2024-06-25 22:11:00
2024-06-26 13:00:00 HR (Humedad Relativa) es igual a 100% y Ts <> Td 10.2 - 9.0 2024-06-26 13:11:00
2024-06-26 14:00:00 HR (Humedad Relativa) es igual a 100% y Ts <> Td 10.4 - 9.2 2024-06-26 14:11:00
2024-06-26 15:00:00 HR (Humedad Relativa) es igual a 100% y Ts <> Td 10.4 - 9.2 2024-06-26 15:10:00
2024-06-26 16:00:00 HR (Humedad Relativa) es igual a 100% y Ts <> Td 10.6 - 9.1 2024-06-26 16:11:00
2024-06-26 17:00:00 HR (Humedad Relativa) es igual a 100% y Ts <> Td 10.8 - 8.9 2024-06-26 17:10:00
2024-06-26 18:00:00 HR (Humedad Relativa) es igual a 100% y Ts <> Td 10.4 - 8.8 2024-06-26 18:11:00
2024-06-26 19:00:00 HR (Humedad Relativa) es igual a 100% y Ts <> Td 10.2 - 9.0 2024-06-26 19:10:00
2024-06-26 20:00:00 HR (Humedad Relativa) es igual a 100% y Ts <> Td 10.2 - 9.0 2024-06-26 20:11:00
2024-06-26 21:00:00 HR (Humedad Relativa) es igual a 100% y Ts <> Td 9.4 - 7.3 2024-06-26 21:10:00
2024-07-01 13:00:00 HR (Humedad Relativa) es igual a 100% y Ts <> Td 5.7 - 4.3 2024-07-01 13:11:00
2024-07-11 13:00:00 HR (Humedad Relativa) es igual a 100% y Ts <> Td 6.4 - 5.0 2024-07-11 13:10:00
2024-07-11 14:00:00 HR (Humedad Relativa) es igual a 100% y Ts <> Td 6.8 - 4.7 2024-07-11 14:11:00
2024-07-12 13:00:00 HR (Humedad Relativa) es igual a 100% y Ts <> Td 6.0 - 5.1 2024-07-12 13:10:00
2024-07-12 14:00:00 HR (Humedad Relativa) es igual a 100% y Ts <> Td 6.2 - 5.1 2024-07-12 14:22:00
2024-07-12 15:00:00 HR (Humedad Relativa) es igual a 100% y Ts <> Td 7.1 - 5.6 2024-07-12 15:19:00
2024-07-12 16:00:00 HR (Humedad Relativa) es igual a 100% y Ts <> Td 6.9 - 5.6 2024-07-12 16:11:00
Total de Errores Recientes 32

Detalle de Errores Encontrados

Nivel Fecha del Dato Descripción Información Error Fecha Ingreso
1 2021-05-19 00:00:00 qfe debe ser menor o igual a qff 1007.8 - 1007.0 2021-05-19 23:47:00
1 2022-03-22 20:00:00 qfe debe ser menor o igual a qff 1003.1 - 1002.9 2022-03-22 19:54:00
1 2022-03-29 16:00:00 qfe debe ser menor o igual a qff 1027.9 - 1023.6 2022-03-29 15:59:00
1 2024-01-22 12:00:00 qfe debe ser menor o igual a qff 1021.7 - 1017.7 2024-01-22 12:00:00
1 2024-07-01 17:00:00 qfe debe ser menor o igual a qff 1015.4 - 1014.2 2024-07-01 16:53:00
1 2023-03-08 19:00:00 HR (Humedad Relativa) es igual a 100% y Ts <> Td 12.1 - 11.9 2023-03-08 19:09:00
1 2023-04-25 21:00:00 HR (Humedad Relativa) es igual a 100% y Ts <> Td 10.4 - 10.1 2023-04-25 21:09:00
1 2023-05-31 22:00:00 HR (Humedad Relativa) es igual a 100% y Ts <> Td 10.7 - 10.2 2023-05-31 22:09:00
1 2023-06-02 18:00:00 HR (Humedad Relativa) es igual a 100% y Ts <> Td 9.6 - 9.3 2023-06-02 18:09:00
1 2023-06-07 22:00:00 HR (Humedad Relativa) es igual a 100% y Ts <> Td 9.5 - 9.2 2023-06-07 22:09:00
1 2024-01-04 20:00:00 HR (Humedad Relativa) es igual a 100% y Ts <> Td 16.9 - 13.5 2024-01-04 20:09:00
1 2024-01-17 13:00:00 HR (Humedad Relativa) es igual a 100% y Ts <> Td 13.4 - 12.5 2024-01-17 13:09:00
1 2024-02-28 12:00:00 Ts debe ser mayor o igual a Td Ts=13.1 - Td=13.3 2024-02-28 12:10:00
1 2024-03-01 12:00:00 HR (Humedad Relativa) es igual a 100% y Ts <> Td 12.9 - 11.6 2024-03-01 12:10:00
1 2024-03-01 18:00:00 HR (Humedad Relativa) es igual a 100% y Ts <> Td 13.4 - 12.3 2024-03-01 18:10:00
1 2024-03-01 19:00:00 HR (Humedad Relativa) es igual a 100% y Ts <> Td 15.2 - 14.0 2024-03-01 19:09:00
1 2024-03-19 12:00:00 HR (Humedad Relativa) es igual a 100% y Ts <> Td 13.0 - 12.2 2024-03-19 12:09:00
1 2024-03-19 13:00:00 HR (Humedad Relativa) es igual a 100% y Ts <> Td 12.5 - 11.5 2024-03-19 13:37:00
1 2024-03-19 14:00:00 HR (Humedad Relativa) es igual a 100% y Ts <> Td 12.8 - 11.4 2024-03-19 14:09:00
1 2024-03-19 15:00:00 HR (Humedad Relativa) es igual a 100% y Ts <> Td 13.2 - 11.3 2024-03-19 15:10:00
1 2024-03-22 14:00:00 HR (Humedad Relativa) es igual a 100% y Ts <> Td 11.3 - 10.1 2024-03-22 14:09:00
1 2024-03-22 15:00:00 HR (Humedad Relativa) es igual a 100% y Ts <> Td 11.3 - 10.9 2024-03-22 15:10:00
1 2024-03-22 16:00:00 HR (Humedad Relativa) es igual a 100% y Ts <> Td 11.8 - 11.4 2024-03-22 16:09:00
1 2024-03-23 15:00:00 HR (Humedad Relativa) es igual a 100% y Ts <> Td 15.3 - 13.8 2024-03-23 15:10:00
1 2024-03-23 16:00:00 HR (Humedad Relativa) es igual a 100% y Ts <> Td 15.8 - 13.9 2024-03-23 16:09:00
1 2024-03-25 12:00:00 HR (Humedad Relativa) es igual a 100% y Ts <> Td 12.5 - 11.5 2024-03-25 12:09:00
1 2024-03-25 13:00:00 HR (Humedad Relativa) es igual a 100% y Ts <> Td 13.2 - 11.6 2024-03-25 13:10:00
1 2024-03-25 14:00:00 HR (Humedad Relativa) es igual a 100% y Ts <> Td 12.7 - 11.9 2024-03-25 14:09:00
1 2024-03-25 15:00:00 HR (Humedad Relativa) es igual a 100% y Ts <> Td 12.6 - 11.7 2024-03-25 15:10:00
1 2024-03-25 16:00:00 HR (Humedad Relativa) es igual a 100% y Ts <> Td 12.5 - 12.0 2024-03-25 16:09:00
1 2024-03-26 12:00:00 HR (Humedad Relativa) es igual a 100% y Ts <> Td 13.3 - 11.3 2024-03-26 12:09:00
1 2024-03-27 12:00:00 HR (Humedad Relativa) es igual a 100% y Ts <> Td 10.2 - 9.6 2024-03-27 12:09:00
1 2024-03-27 13:00:00 HR (Humedad Relativa) es igual a 100% y Ts <> Td 11.6 - 10.4 2024-03-27 13:10:00
1 2024-03-28 12:00:00 HR (Humedad Relativa) es igual a 100% y Ts <> Td 12.2 - 10.6 2024-03-28 12:22:00
1 2024-03-28 13:00:00 HR (Humedad Relativa) es igual a 100% y Ts <> Td 12.4 - 10.6 2024-03-28 13:10:00
1 2024-03-28 14:00:00 HR (Humedad Relativa) es igual a 100% y Ts <> Td 12.3 - 10.7 2024-03-28 14:09:00
1 2024-03-28 15:00:00 HR (Humedad Relativa) es igual a 100% y Ts <> Td 12.0 - 11.2 2024-03-28 15:10:00
1 2024-03-28 16:00:00 HR (Humedad Relativa) es igual a 100% y Ts <> Td 12.6 - 11.3 2024-03-28 16:09:00
1 2024-03-28 17:00:00 HR (Humedad Relativa) es igual a 100% y Ts <> Td 12.3 - 11.7 2024-03-28 17:10:00
1 2024-03-28 18:00:00 HR (Humedad Relativa) es igual a 100% y Ts <> Td 12.7 - 11.6 2024-03-28 18:09:00
1 2024-03-28 19:00:00 HR (Humedad Relativa) es igual a 100% y Ts <> Td 12.7 - 12.0 2024-03-28 19:10:00
1 2024-04-02 12:00:00 HR (Humedad Relativa) es igual a 100% y Ts <> Td 8.9 - 8.4 2024-04-02 12:10:00
1 2024-04-02 13:00:00 HR (Humedad Relativa) es igual a 100% y Ts <> Td 10.9 - 10.3 2024-04-02 13:18:00
1 2024-04-02 14:00:00 HR (Humedad Relativa) es igual a 100% y Ts <> Td 11.7 - 10.7 2024-04-02 14:10:00
1 2024-04-02 15:00:00 HR (Humedad Relativa) es igual a 100% y Ts <> Td 8.4 - 8.1 2024-04-02 15:11:00
1 2024-04-02 16:00:00 HR (Humedad Relativa) es igual a 100% y Ts <> Td 8.3 - 7.2 2024-04-02 16:37:00
1 2024-04-03 18:00:00 HR (Humedad Relativa) es igual a 100% y Ts <> Td 11.6 - 10.8 2024-04-03 18:11:00
1 2024-04-03 19:00:00 HR (Humedad Relativa) es igual a 100% y Ts <> Td 11.9 - 10.7 2024-04-03 19:11:00
1 2024-04-03 20:00:00 HR (Humedad Relativa) es igual a 100% y Ts <> Td 12.7 - 11.2 2024-04-03 20:11:00
1 2024-04-05 12:00:00 HR (Humedad Relativa) es igual a 100% y Ts <> Td 11.1 - 10.0 2024-04-05 12:13:00
1 2024-04-05 13:00:00 HR (Humedad Relativa) es igual a 100% y Ts <> Td 11.8 - 10.5 2024-04-05 13:13:00
1 2024-04-05 14:00:00 HR (Humedad Relativa) es igual a 100% y Ts <> Td 11.7 - 10.5 2024-04-05 14:13:00
1 2024-04-05 21:00:00 HR (Humedad Relativa) es igual a 100% y Ts <> Td 12.1 - 10.9 2024-04-05 21:13:00
1 2024-05-06 19:00:00 HR (Humedad Relativa) es igual a 100% y Ts <> Td 6.7 - 6.3 2024-05-06 19:14:00
1 2024-05-20 17:00:00 HR (Humedad Relativa) es igual a 100% y Ts <> Td 8.6 - 8.3 2024-05-20 17:09:00
1 2024-05-27 21:00:00 HR (Humedad Relativa) es igual a 100% y Ts <> Td 10.1 - 9.8 2024-05-27 21:09:00
1 2024-05-28 13:00:00 HR (Humedad Relativa) es igual a 100% y Ts <> Td 10.2 - 9.9 2024-05-28 13:09:00
1 2024-05-28 14:00:00 HR (Humedad Relativa) es igual a 100% y Ts <> Td 10.2 - 9.9 2024-05-28 14:09:00
1 2024-05-30 22:00:00 HR (Humedad Relativa) es igual a 100% y Ts <> Td 8.9 - 8.6 2024-05-30 22:09:00
1 2024-06-04 21:00:00 HR (Humedad Relativa) es igual a 100% y Ts <> Td 10.4 - 10.0 2024-06-04 21:10:00
1 2024-06-04 22:00:00 HR (Humedad Relativa) es igual a 100% y Ts <> Td 10.7 - 10.4 2024-06-04 22:11:00
1 2024-06-25 13:00:00 HR (Humedad Relativa) es igual a 100% y Ts <> Td 7.5 - 5.6 2024-06-25 13:10:00
1 2024-06-25 18:00:00 HR (Humedad Relativa) es igual a 100% y Ts <> Td 7.7 - 6.3 2024-06-25 18:11:00
1 2024-06-25 19:00:00 HR (Humedad Relativa) es igual a 100% y Ts <> Td 8.3 - 7.0 2024-06-25 19:11:00
1 2024-06-25 20:00:00 HR (Humedad Relativa) es igual a 100% y Ts <> Td 8.7 - 7.3 2024-06-25 20:11:00
1 2024-06-25 21:00:00 HR (Humedad Relativa) es igual a 100% y Ts <> Td 8.9 - 7.5 2024-06-25 21:10:00
1 2024-06-25 22:00:00 HR (Humedad Relativa) es igual a 100% y Ts <> Td 9.2 - 8.1 2024-06-25 22:11:00
1 2024-06-26 13:00:00 HR (Humedad Relativa) es igual a 100% y Ts <> Td 10.2 - 9.0 2024-06-26 13:11:00
1 2024-06-26 14:00:00 HR (Humedad Relativa) es igual a 100% y Ts <> Td 10.4 - 9.2 2024-06-26 14:11:00
1 2024-06-26 15:00:00 HR (Humedad Relativa) es igual a 100% y Ts <> Td 10.4 - 9.2 2024-06-26 15:10:00
1 2024-06-26 16:00:00 HR (Humedad Relativa) es igual a 100% y Ts <> Td 10.6 - 9.1 2024-06-26 16:11:00
1 2024-06-26 17:00:00 HR (Humedad Relativa) es igual a 100% y Ts <> Td 10.8 - 8.9 2024-06-26 17:10:00
1 2024-06-26 18:00:00 HR (Humedad Relativa) es igual a 100% y Ts <> Td 10.4 - 8.8 2024-06-26 18:11:00
1 2024-06-26 19:00:00 HR (Humedad Relativa) es igual a 100% y Ts <> Td 10.2 - 9.0 2024-06-26 19:10:00
1 2024-06-26 20:00:00 HR (Humedad Relativa) es igual a 100% y Ts <> Td 10.2 - 9.0 2024-06-26 20:11:00
1 2024-06-26 21:00:00 HR (Humedad Relativa) es igual a 100% y Ts <> Td 9.4 - 7.3 2024-06-26 21:10:00
1 2024-07-01 13:00:00 HR (Humedad Relativa) es igual a 100% y Ts <> Td 5.7 - 4.3 2024-07-01 13:11:00
1 2024-07-11 13:00:00 HR (Humedad Relativa) es igual a 100% y Ts <> Td 6.4 - 5.0 2024-07-11 13:10:00
1 2024-07-11 14:00:00 HR (Humedad Relativa) es igual a 100% y Ts <> Td 6.8 - 4.7 2024-07-11 14:11:00
1 2024-07-12 13:00:00 HR (Humedad Relativa) es igual a 100% y Ts <> Td 6.0 - 5.1 2024-07-12 13:10:00
1 2024-07-12 14:00:00 HR (Humedad Relativa) es igual a 100% y Ts <> Td 6.2 - 5.1 2024-07-12 14:22:00
1 2024-07-12 15:00:00 HR (Humedad Relativa) es igual a 100% y Ts <> Td 7.1 - 5.6 2024-07-12 15:19:00
1 2024-07-12 16:00:00 HR (Humedad Relativa) es igual a 100% y Ts <> Td 6.9 - 5.6 2024-07-12 16:11:00
Errores del Nivel 83
Nivel Fecha del Dato Descripción Información Error Fecha Ingreso
2 2020-07-19 00:00:00 Temperatura 10.5 del 18-07-2020 17:00, Mayor que la Máxima 10.4 19-07-2020 00:00 10.5 -- 10.4 2020-07-19 00:20:00
2 2024-03-20 00:00:00 Temperatura 13.8 del 19-03-2024 16:00, Mayor que la Máxima 13.4 20-03-2024 00:00 13.8 -- 13.4 2024-03-20 00:09:00
2 2024-03-24 00:00:00 Temperatura 15.8 del 23-03-2024 16:00, Mayor que la Máxima 15.5 24-03-2024 00:00 15.8 -- 15.5 2024-03-24 00:09:00
2 2024-03-29 00:00:00 Temperatura 14.6 del 28-03-2024 21:00, Mayor que la Máxima 12.8 29-03-2024 00:00 14.6 -- 12.8 2024-03-29 00:09:00
2 2024-04-04 00:00:00 Temperatura 12.7 del 03-04-2024 20:00, Mayor que la Máxima 12.6 04-04-2024 00:00 12.7 -- 12.6 2024-04-04 00:11:00
2 2024-04-07 00:00:00 Temperatura 13.1 del 06-04-2024 16:00, Mayor que la Máxima 12.6 07-04-2024 00:00 13.1 -- 12.6 2024-04-07 00:14:00
2 2024-04-11 00:00:00 Temperatura 15.7 del 10-04-2024 19:00, Mayor que la Máxima 15.6 11-04-2024 00:00 15.7 -- 15.6 2024-04-11 00:14:00
2 2024-06-14 00:00:00 Temperatura 10.0 del 13-06-2024 16:00, Mayor que la Máxima 9.7 14-06-2024 00:00 10.0 -- 9.7 2024-06-14 00:12:00
2 2024-07-07 00:00:00 Temperatura 9.2 del 06-07-2024 17:00, Mayor que la Máxima 8.8 07-07-2024 00:00 9.2 -- 8.8 2024-07-07 00:11:00
2 2020-04-29 12:00:00 Temperatura 11.6 del 29-04-2020 12:00, Menor que la Mínima 11.7 29-04-2020 12:00 11.6 -- 11.7 2020-05-06 14:11:00
2 2020-05-28 12:00:00 Temperatura 5.7 del 28-05-2020 12:00, Menor que la Mínima 5.8 28-05-2020 12:00 5.7 -- 5.8 2020-05-28 12:20:00
2 2022-03-17 12:00:00 Temperatura 8.0 del 17-03-2022 09:00, Menor que la Mínima 8.1 17-03-2022 12:00 8.0 -- 8.1 2022-03-17 12:09:00
2 2022-04-27 12:00:00 Temperatura 3.3 del 27-04-2022 12:00, Menor que la Mínima 3.4 27-04-2022 12:00 3.3 -- 3.4 2022-04-27 12:10:00
2 2022-06-20 12:00:00 Temperatura 2.5 del 20-06-2022 12:00, Menor que la Mínima 2.6 20-06-2022 12:00 2.5 -- 2.6 2022-06-20 12:09:00
2 2022-07-14 12:00:00 Temperatura 4.0 del 14-07-2022 12:00, Menor que la Mínima 4.1 14-07-2022 12:00 4.0 -- 4.1 2022-07-14 12:10:00
2 2023-10-08 12:00:00 Temperatura 7.4 del 08-10-2023 12:00, Menor que la Mínima 7.5 08-10-2023 12:00 7.4 -- 7.5 2023-10-08 12:09:00
Errores del Nivel 16
Informe generado el 17-07-2024 12:10
Requerimiento: RE6001